createdAt,value
2018-06-27T00:01:14.103Z,101969.98
2018-06-27T00:03:42.448Z,101964.45
2018-06-27T00:06:10.761Z,101954.84
2018-06-27T00:08:39.243Z,101953.36
2018-06-27T00:11:07.591Z,101966.11
2018-06-27T00:13:35.945Z,101958.12
2018-06-27T00:16:04.349Z,101960.08
2018-06-27T00:18:32.748Z,101947.11
2018-06-27T00:21:01.086Z,101954.32
2018-06-27T00:23:29.421Z,101960.00
2018-06-27T00:25:57.774Z,101968.28
2018-06-27T00:28:26.129Z,101954.35
2018-06-27T00:30:54.453Z,101952.26
2018-06-27T00:33:22.818Z,101953.53
2018-06-27T00:35:51.212Z,101945.76
2018-06-27T00:38:19.582Z,101945.41
2018-06-27T00:40:47.939Z,101948.67
2018-06-27T00:43:17.138Z,101952.59
2018-06-27T00:45:45.473Z,101955.30
2018-06-27T00:48:13.858Z,101958.97
2018-06-27T00:50:42.168Z,101963.55
2018-06-27T00:53:10.543Z,101964.98
2018-06-27T00:55:38.884Z,101963.44
2018-06-27T00:58:07.340Z,101955.33
2018-06-27T01:00:35.759Z,101959.11
2018-06-27T01:03:04.114Z,101959.51
2018-06-27T01:05:32.515Z,101959.98
2018-06-27T01:08:00.920Z,101952.40
2018-06-27T01:10:29.424Z,101953.56
2018-06-27T01:12:57.787Z,101958.02
2018-06-27T01:15:26.144Z,101962.07
2018-06-27T01:17:56.083Z,101953.34
2018-06-27T01:20:24.468Z,101961.33
2018-06-27T01:22:52.837Z,101955.77
2018-06-27T01:25:21.632Z,101962.61
2018-06-27T01:27:49.976Z,101955.46
2018-06-27T01:30:18.343Z,101957.69
2018-06-27T01:32:46.694Z,101965.52
2018-06-27T01:35:15.365Z,101972.63
2018-06-27T01:37:43.864Z,101969.94
2018-06-27T01:40:12.245Z,101965.00
2018-06-27T01:42:40.618Z,101973.80
2018-06-27T01:45:08.973Z,101966.59
2018-06-27T01:47:37.330Z,101964.85
2018-06-27T01:50:05.727Z,101972.09
2018-06-27T01:52:34.176Z,101971.73
2018-06-27T01:55:02.520Z,101967.28
2018-06-27T01:57:30.891Z,101959.17
2018-06-27T01:59:59.247Z,101966.59
2018-06-27T02:02:27.624Z,101971.45
2018-06-27T02:04:55.999Z,101968.59
2018-06-27T02:07:24.349Z,101966.76
2018-06-27T02:09:52.730Z,101968.11
2018-06-27T02:12:21.068Z,101970.10
2018-06-27T02:14:49.483Z,101963.34
2018-06-27T02:17:17.828Z,101972.09
2018-06-27T02:19:46.189Z,101968.35
2018-06-27T02:22:14.577Z,101973.23
2018-06-27T02:24:42.933Z,101973.56
2018-06-27T02:27:11.281Z,101972.20
2018-06-27T02:29:39.611Z,101974.36
2018-06-27T02:32:07.993Z,101979.48
2018-06-27T02:34:36.350Z,101983.53
2018-06-27T02:37:04.692Z,101986.59
2018-06-27T02:39:33.041Z,101987.83
2018-06-27T02:42:01.451Z,101985.77
2018-06-27T02:44:29.792Z,101981.43
2018-06-27T02:46:58.138Z,101984.41
2018-06-27T02:49:26.469Z,101979.84
2018-06-27T02:51:54.795Z,101984.77
2018-06-27T02:54:23.142Z,101984.41
2018-06-27T02:56:51.488Z,101997.41
2018-06-27T02:59:19.841Z,101987.67
2018-06-27T03:01:48.181Z,101986.44
2018-06-27T03:04:16.556Z,101998.40
2018-06-27T03:06:44.900Z,102002.89
2018-06-27T03:09:13.243Z,102003.28
2018-06-27T03:11:41.679Z,102002.93
2018-06-27T03:14:10.041Z,102008.22
2018-06-27T03:16:38.381Z,102014.97
2018-06-27T03:19:06.692Z,102010.52
2018-06-27T03:21:35.064Z,102010.09
2018-06-27T03:24:03.368Z,102020.45
2018-06-27T03:26:31.693Z,102016.72
2018-06-27T03:29:00.010Z,102017.28
2018-06-27T03:31:28.389Z,102021.25
2018-06-27T03:33:56.727Z,102020.89
2018-06-27T03:36:25.041Z,102017.28
2018-06-27T03:38:53.369Z,102013.22
2018-06-27T03:41:21.698Z,102018.67
2018-06-27T03:43:50.041Z,102025.42
2018-06-27T03:46:18.367Z,102028.20
2018-06-27T03:48:46.696Z,102029.27
2018-06-27T03:51:15.005Z,102028.20
2018-06-27T03:53:47.488Z,102028.68
2018-06-27T03:56:15.822Z,102029.44
2018-06-27T03:58:44.137Z,102026.78
2018-06-27T04:01:12.460Z,102029.91
2018-06-27T04:03:41.712Z,102035.53
2018-06-27T04:07:34.498Z,102038.16
2018-06-27T04:10:03.055Z,102038.91
2018-06-27T04:12:31.568Z,102040.94
2018-06-27T04:14:59.892Z,102044.00
2018-06-27T04:17:29.385Z,102051.99
2018-06-27T04:19:57.736Z,102049.05
2018-06-27T04:22:31.498Z,102045.55
2018-06-27T04:25:00.087Z,102047.86
2018-06-27T04:27:29.185Z,102050.76
2018-06-27T04:29:57.568Z,102051.87
2018-06-27T04:32:26.755Z,102056.32
2018-06-27T04:34:55.449Z,102052.66
2018-06-27T04:37:23.867Z,102058.91
2018-06-27T04:39:52.214Z,102061.05
2018-06-27T04:42:20.583Z,102062.01
2018-06-27T04:44:48.942Z,102061.69
2018-06-27T04:47:17.284Z,102061.00
2018-06-27T04:49:45.698Z,102060.73
2018-06-27T04:52:14.863Z,102065.14
2018-06-27T04:54:43.342Z,102072.05
2018-06-27T04:57:11.687Z,102072.20
2018-06-27T04:59:40.060Z,102071.64
2018-06-27T05:02:08.413Z,102072.18
2018-06-27T05:04:36.756Z,102075.11
2018-06-27T05:07:05.100Z,102072.06
2018-06-27T05:09:33.451Z,102076.10
2018-06-27T05:12:01.797Z,102073.71
2018-06-27T05:14:30.174Z,102075.49
2018-06-27T05:16:58.583Z,102075.14
2018-06-27T05:19:26.929Z,102084.27
2018-06-27T05:21:55.271Z,102078.63
2018-06-27T05:24:23.651Z,102083.08
2018-06-27T05:26:52.021Z,102088.88
2018-06-27T05:29:20.377Z,102083.14
2018-06-27T05:31:48.757Z,102086.94
2018-06-27T05:34:17.135Z,102084.11
2018-06-27T05:36:45.513Z,102092.66
2018-06-27T05:39:13.860Z,102087.63
2018-06-27T05:41:42.227Z,102085.98
2018-06-27T05:44:10.585Z,102088.09
2018-06-27T05:46:39.032Z,102087.50
2018-06-27T05:49:07.480Z,102092.84
2018-06-27T05:51:35.879Z,102089.84
2018-06-27T05:54:04.237Z,102090.32
2018-06-27T05:56:32.603Z,102095.69
2018-06-27T05:59:00.927Z,102095.28
2018-06-27T06:01:29.270Z,102102.44
2018-06-27T06:03:57.717Z,102100.91
2018-06-27T06:06:26.092Z,102100.42
2018-06-27T06:08:54.443Z,102102.08
2018-06-27T06:11:23.523Z,102107.65
2018-06-27T06:13:51.889Z,102110.48
2018-06-27T06:16:20.292Z,102105.44
2018-06-27T06:18:48.643Z,102105.65
2018-06-27T06:21:17.025Z,102109.25
2018-06-27T06:23:45.358Z,102108.95
2018-06-27T06:26:13.718Z,102115.27
2018-06-27T06:28:42.048Z,102115.17
2018-06-27T06:31:10.397Z,102105.91
2018-06-27T06:33:38.859Z,102111.28
2018-06-27T06:36:07.225Z,102111.95
2018-06-27T06:38:35.562Z,102103.91
2018-06-27T06:41:03.985Z,102110.59
2018-06-27T06:43:32.342Z,102109.59
2018-06-27T06:46:00.726Z,102106.33
2018-06-27T06:48:30.284Z,102113.80
2018-06-27T06:50:58.834Z,102119.50
2018-06-27T06:53:27.175Z,102122.70
2018-06-27T06:55:55.617Z,102125.74
2018-06-27T06:58:23.943Z,102116.90
2018-06-27T07:00:52.281Z,102113.19
2018-06-27T07:03:20.652Z,102124.38
2018-06-27T07:05:49.730Z,102113.20
2018-06-27T07:08:18.058Z,102114.92
2018-06-27T07:10:46.518Z,102118.94
2018-06-27T07:13:14.870Z,102117.39
2018-06-27T07:15:43.208Z,102118.45
2018-06-27T07:18:11.575Z,102111.68
2018-06-27T07:20:39.958Z,102116.16
2018-06-27T07:23:08.308Z,102117.77
2018-06-27T07:25:36.678Z,102112.65
2018-06-27T07:28:05.022Z,102111.38
2018-06-27T07:30:33.370Z,102109.92
2018-06-27T07:33:01.741Z,102106.12
2018-06-27T07:35:30.091Z,102111.73
2018-06-27T07:37:58.420Z,102119.64
2018-06-27T07:40:26.749Z,102113.94
2018-06-27T07:42:55.150Z,102113.20
2018-06-27T07:45:23.512Z,102110.52
2018-06-27T07:47:51.888Z,102120.20
2018-06-27T07:50:20.305Z,102116.45
2018-06-27T07:52:48.666Z,102120.25
2018-06-27T07:55:17.125Z,102123.88
2018-06-27T07:57:45.444Z,102120.12
2018-06-27T08:00:13.787Z,102119.03
2018-06-27T08:02:42.107Z,102122.89
2018-06-27T08:05:10.455Z,102119.70
2018-06-27T08:07:38.905Z,102116.67
2018-06-27T08:10:07.247Z,102111.62
2018-06-27T08:12:35.941Z,102116.34
2018-06-27T08:15:04.378Z,102109.69
2018-06-27T08:17:32.743Z,102112.87
2018-06-27T08:20:01.124Z,102110.87
2018-06-27T08:22:29.465Z,102118.28
2018-06-27T08:24:57.786Z,102118.91
2018-06-27T08:27:26.138Z,102112.33
2018-06-27T08:29:54.485Z,102113.52
2018-06-27T08:32:22.836Z,102109.94
2018-06-27T08:34:51.218Z,102115.12
2018-06-27T08:37:19.567Z,102113.47
2018-06-27T08:39:47.898Z,102108.67
2018-06-27T08:42:16.292Z,102111.19
2018-06-27T08:44:44.625Z,102105.33
2018-06-27T08:47:13.009Z,102100.30
2018-06-27T08:49:41.396Z,102106.77
2018-06-27T08:52:09.767Z,102109.06
2018-06-27T08:54:43.442Z,102112.34
2018-06-27T08:57:11.836Z,102120.30
2018-06-27T08:59:40.188Z,102117.28
2018-06-27T09:02:08.523Z,102124.27
2018-06-27T09:04:36.865Z,102119.69
2018-06-27T09:07:05.633Z,102126.95
2018-06-27T09:09:33.984Z,102126.71
2018-06-27T09:12:02.356Z,102125.37
2018-06-27T09:14:30.708Z,102124.92
2018-06-27T09:16:59.117Z,102131.48
2018-06-27T09:19:27.464Z,102132.09
2018-06-27T09:21:55.843Z,102133.24
2018-06-27T09:24:24.186Z,102111.75
2018-06-27T09:26:52.670Z,102143.73
2018-06-27T09:29:21.031Z,102125.19
2018-06-27T09:31:49.352Z,102140.03
2018-06-27T09:34:17.668Z,102132.89
2018-06-27T09:36:46.039Z,102127.26
2018-06-27T09:39:14.413Z,102130.94
2018-06-27T09:41:42.747Z,102130.70
2018-06-27T09:44:11.069Z,102123.27
2018-06-27T09:46:39.448Z,102137.38
2018-06-27T09:49:07.824Z,102135.08
2018-06-27T09:51:36.191Z,102134.17
2018-06-27T09:54:04.587Z,102141.59
2018-06-27T09:56:32.950Z,102137.00
2018-06-27T09:59:01.303Z,102132.70
2018-06-27T10:01:29.689Z,102125.94
2018-06-27T10:03:58.068Z,102120.44
2018-06-27T10:06:26.444Z,102125.85
2018-06-27T10:08:54.814Z,102126.40
2018-06-27T10:11:23.195Z,102118.95
2018-06-27T10:13:51.581Z,102117.47
2018-06-27T10:16:19.957Z,102117.30
2018-06-27T10:18:48.307Z,102115.94
2018-06-27T10:21:16.688Z,102113.52
2018-06-27T10:23:45.066Z,102111.69
2018-06-27T10:26:13.393Z,102109.37
2018-06-27T10:28:41.743Z,102117.09
2018-06-27T10:31:10.096Z,102106.12
2018-06-27T10:33:38.495Z,102101.72
2018-06-27T10:36:06.857Z,102096.11
2018-06-27T10:38:35.187Z,102105.52
2018-06-27T10:41:03.531Z,102096.27
2018-06-27T10:43:31.851Z,102092.39
2018-06-27T10:46:00.238Z,102096.89
2018-06-27T10:48:28.599Z,102097.26
2018-06-27T10:50:56.976Z,102106.34
2018-06-27T10:53:25.354Z,102089.22
2018-06-27T10:55:53.711Z,102091.64
2018-06-27T10:58:22.059Z,102096.53
2018-06-27T11:00:50.397Z,102097.05
2018-06-27T11:03:18.765Z,102095.44
2018-06-27T11:05:47.133Z,102094.26
2018-06-27T11:08:15.468Z,102095.73
2018-06-27T11:10:43.836Z,102093.67
2018-06-27T11:13:12.196Z,102101.78
2018-06-27T11:15:40.562Z,102101.21
2018-06-27T11:18:08.916Z,102095.69
2018-06-27T11:20:37.235Z,102093.39
2018-06-27T11:23:05.776Z,102094.92
2018-06-27T11:25:34.128Z,102097.14
2018-06-27T11:28:02.471Z,102092.95
2018-06-27T11:30:30.813Z,102088.43
2018-06-27T11:32:59.190Z,102087.13
2018-06-27T11:35:27.542Z,102091.38
2018-06-27T11:37:55.885Z,102090.28
2018-06-27T11:40:24.298Z,102086.90
2018-06-27T11:42:52.679Z,102082.05
2018-06-27T11:45:21.007Z,102080.18
2018-06-27T11:47:49.364Z,102089.61
2018-06-27T11:50:17.738Z,102085.04
2018-06-27T11:52:46.232Z,102077.97
2018-06-27T11:55:14.603Z,102078.20
2018-06-27T11:57:44.347Z,102084.36
2018-06-27T12:00:12.846Z,102080.84
2018-06-27T12:02:41.214Z,102077.45
2018-06-27T12:05:10.544Z,102077.23
2018-06-27T12:07:38.940Z,102085.86
2018-06-27T12:10:07.307Z,102081.57
2018-06-27T12:12:35.688Z,102067.23
2018-06-27T12:15:04.125Z,102058.23
2018-06-27T12:17:32.486Z,102065.30
2018-06-27T12:20:00.863Z,102074.16
2018-06-27T12:22:29.232Z,102065.17
2018-06-27T12:24:57.565Z,102060.37
2018-06-27T12:27:25.930Z,102054.20
2018-06-27T12:29:54.304Z,102060.92
2018-06-27T12:32:22.708Z,102053.80
2018-06-27T12:34:51.055Z,102064.89
2018-06-27T12:37:19.381Z,102050.59
2018-06-27T12:39:47.722Z,102044.10
2018-06-27T12:42:16.063Z,102049.08
2018-06-27T12:44:44.383Z,102049.58
2018-06-27T12:47:12.751Z,102036.41
2018-06-27T12:49:41.131Z,102046.70
2018-06-27T12:52:09.480Z,102036.95
2018-06-27T12:54:37.808Z,102042.67
2018-06-27T12:57:06.174Z,102045.81
2018-06-27T12:59:34.510Z,102034.34
2018-06-27T13:02:02.884Z,102044.68
2018-06-27T13:04:31.251Z,102035.30
2018-06-27T13:06:59.598Z,102032.31
2018-06-27T13:09:27.963Z,102022.98
2018-06-27T13:11:56.303Z,102017.98
2018-06-27T13:14:24.683Z,102026.72
2018-06-27T13:16:53.073Z,102021.37
2018-06-27T13:19:21.408Z,102028.23
2018-06-27T13:21:49.790Z,102022.23
2018-06-27T13:24:18.119Z,102031.70
2018-06-27T13:26:46.444Z,102025.47
2018-06-27T13:29:14.770Z,102022.24
2018-06-27T13:31:43.133Z,102023.37
2018-06-27T13:34:11.450Z,102027.24
2018-06-27T13:36:39.824Z,102019.48
2018-06-27T13:39:09.316Z,102023.72
2018-06-27T13:41:37.697Z,102020.63
2018-06-27T13:44:06.753Z,102025.09
2018-06-27T13:46:35.119Z,102020.34
2018-06-27T13:49:03.464Z,102020.61
2018-06-27T13:51:31.801Z,102023.03
2018-06-27T13:54:00.146Z,102023.30
2018-06-27T13:56:28.471Z,102024.61
2018-06-27T13:58:56.906Z,102023.41
2018-06-27T14:01:25.251Z,102019.09
2018-06-27T14:03:53.706Z,102015.23
2018-06-27T14:06:22.097Z,102008.27
2018-06-27T14:08:50.497Z,102012.48
2018-06-27T14:11:18.866Z,102006.50
2018-06-27T14:13:47.218Z,102002.66
2018-06-27T14:16:15.568Z,102004.98
2018-06-27T14:18:44.001Z,102012.44
2018-06-27T14:21:12.355Z,102000.84
2018-06-27T14:23:40.734Z,102004.45
2018-06-27T14:26:09.081Z,102006.95
2018-06-27T14:28:37.451Z,102001.61
2018-06-27T14:31:05.872Z,102003.61
2018-06-27T14:33:34.252Z,102005.22
2018-06-27T14:36:02.642Z,102011.06
2018-06-27T14:38:31.047Z,102004.11
2018-06-27T14:40:59.419Z,101999.87
2018-06-27T14:43:27.809Z,102003.00
2018-06-27T14:45:56.186Z,101997.18
2018-06-27T14:48:24.530Z,101989.57
2018-06-27T14:50:52.906Z,101984.21
2018-06-27T14:53:21.368Z,101991.05
2018-06-27T14:55:49.726Z,101994.56
2018-06-27T14:58:18.146Z,101996.31
2018-06-27T15:00:46.494Z,101993.80
2018-06-27T15:03:14.862Z,101982.08
2018-06-27T15:05:43.212Z,101985.34
2018-06-27T15:08:11.588Z,101985.97
2018-06-27T15:10:40.312Z,101988.08
2018-06-27T15:13:08.660Z,101985.22
2018-06-27T15:15:37.036Z,101993.32
2018-06-27T15:18:05.541Z,101999.80
2018-06-27T15:20:33.955Z,102000.78
2018-06-27T15:23:02.248Z,102000.16
2018-06-27T15:25:30.629Z,101994.03
2018-06-27T15:27:58.968Z,101992.64
2018-06-27T15:30:27.313Z,101996.12
2018-06-27T15:32:55.691Z,101991.27
2018-06-27T15:35:24.108Z,101993.11
2018-06-27T15:37:52.419Z,101981.91
2018-06-27T15:40:20.743Z,101990.64
2018-06-27T15:42:49.160Z,101982.78
2018-06-27T15:45:17.525Z,101978.81
2018-06-27T15:47:45.964Z,101980.05
2018-06-27T15:50:15.271Z,101985.87
2018-06-27T15:52:43.744Z,101977.91
2018-06-27T15:55:12.100Z,101979.65
2018-06-27T15:57:40.468Z,101967.84
2018-06-27T16:00:09.029Z,101977.06
2018-06-27T16:02:37.397Z,101976.56
2018-06-27T16:05:05.862Z,101963.09
2018-06-27T16:07:34.266Z,101966.83
2018-06-27T16:10:02.634Z,101966.73
2018-06-27T16:12:31.043Z,101966.13
2018-06-27T16:14:59.407Z,101955.52
2018-06-27T16:17:27.992Z,101954.91
2018-06-27T16:19:56.174Z,101965.70
2018-06-27T16:22:24.544Z,101961.36
2018-06-27T16:24:52.987Z,101965.97
2018-06-27T16:27:21.338Z,101956.34
2018-06-27T16:29:49.701Z,101964.57
2018-06-27T16:32:18.052Z,101954.34
2018-06-27T16:34:46.400Z,101956.09
2018-06-27T16:37:14.819Z,101962.34
2018-06-27T16:39:43.297Z,101954.95
2018-06-27T16:42:11.610Z,101959.97
2018-06-27T16:44:40.378Z,101953.22
2018-06-27T16:47:08.735Z,101949.61
2018-06-27T16:49:37.092Z,101942.39
2018-06-27T16:52:05.657Z,101940.02
2018-06-27T16:54:34.173Z,101942.99
2018-06-27T16:57:02.659Z,101944.63
2018-06-27T16:59:31.013Z,101938.52
2018-06-27T17:01:59.422Z,101933.17
2018-06-27T17:04:27.865Z,101942.13
2018-06-27T17:06:56.372Z,101944.89
2018-06-27T17:09:24.803Z,101943.02
2018-06-27T17:11:53.342Z,101942.41
2018-06-27T17:14:21.677Z,101950.48
2018-06-27T17:16:50.080Z,101943.03
2018-06-27T17:19:18.446Z,101951.13
2018-06-27T17:21:46.810Z,101945.91
2018-06-27T17:24:15.242Z,101953.13
2018-06-27T17:26:43.588Z,101956.73
2018-06-27T17:29:11.944Z,101957.62
2018-06-27T17:31:40.367Z,101952.23
2018-06-27T17:34:08.700Z,101953.98
2018-06-27T17:36:37.105Z,101948.63
2018-06-27T17:39:08.079Z,101959.20
2018-06-27T17:41:36.837Z,101954.09
2018-06-27T17:44:05.342Z,101956.33
2018-06-27T17:46:33.840Z,101954.59
2018-06-27T17:49:02.199Z,101961.67
2018-06-27T17:51:30.564Z,101958.20
2018-06-27T17:53:58.944Z,101960.04
2018-06-27T17:56:27.291Z,101966.89
2018-06-27T17:58:55.633Z,101964.88
2018-06-27T18:01:24.016Z,101966.89
2018-06-27T18:03:52.363Z,101960.88
2018-06-27T18:06:20.773Z,101974.06
2018-06-27T18:08:49.197Z,101964.70
2018-06-27T18:11:17.499Z,101963.20
2018-06-27T18:13:45.907Z,101964.83
2018-06-27T18:16:14.307Z,101963.89
2018-06-27T18:18:42.689Z,101963.75
2018-06-27T18:21:11.184Z,101968.58
2018-06-27T18:23:39.630Z,101962.69
2018-06-27T18:26:08.061Z,101958.22
2018-06-27T18:28:36.475Z,101962.95
2018-06-27T18:31:04.831Z,101963.18
2018-06-27T18:33:33.184Z,101962.03
2018-06-27T18:36:01.568Z,101965.41
2018-06-27T18:38:30.042Z,101971.84
2018-06-27T18:40:58.476Z,101968.59
2018-06-27T18:43:26.901Z,101972.33
2018-06-27T18:45:55.374Z,101970.09
2018-06-27T18:48:23.866Z,101969.72
2018-06-27T18:50:52.296Z,101971.81
2018-06-27T18:53:20.783Z,101970.66
2018-06-27T18:55:49.448Z,101971.11
2018-06-27T18:58:18.010Z,101973.11
2018-06-27T19:00:46.448Z,101976.94
2018-06-27T19:03:14.963Z,101983.13
2018-06-27T19:05:43.358Z,101979.27
2018-06-27T19:08:11.762Z,101981.36
2018-06-27T19:10:40.167Z,101981.08
2018-06-27T19:13:08.639Z,101988.05
2018-06-27T19:15:37.020Z,101985.53
2018-06-27T19:18:05.667Z,101986.84
2018-06-27T19:20:34.075Z,101986.65
2018-06-27T19:23:02.580Z,101991.88
2018-06-27T19:25:30.989Z,101993.95
2018-06-27T19:27:59.451Z,101992.80
2018-06-27T19:30:27.920Z,101998.98
2018-06-27T19:32:56.334Z,101994.23
2018-06-27T19:35:24.657Z,101999.54
2018-06-27T19:37:53.091Z,102006.34
2018-06-27T19:40:21.435Z,102008.41
2018-06-27T19:42:49.776Z,102009.25
2018-06-27T19:45:18.101Z,102015.92
2018-06-27T19:47:46.450Z,102008.14
2018-06-27T19:50:14.808Z,102011.12
2018-06-27T19:52:43.162Z,102023.50
2018-06-27T19:55:11.650Z,102014.06
2018-06-27T19:57:40.027Z,102012.16
2018-06-27T20:00:08.387Z,102012.94
2018-06-27T20:02:36.726Z,102015.88
2018-06-27T20:05:05.134Z,102019.35
2018-06-27T20:07:33.616Z,102024.91
2018-06-27T20:10:01.971Z,102018.25
2018-06-27T20:12:30.291Z,102017.82
2018-06-27T20:14:58.729Z,102021.42
2018-06-27T20:17:27.049Z,102021.38
2018-06-27T20:19:55.387Z,102024.48
2018-06-27T20:22:23.827Z,102022.45
2018-06-27T20:24:52.131Z,102027.36
2018-06-27T20:27:20.499Z,102026.02
2018-06-27T20:29:48.875Z,102020.77
2018-06-27T20:32:17.236Z,102028.95
2018-06-27T20:34:45.575Z,102031.31
2018-06-27T20:37:14.116Z,102028.41
2018-06-27T20:39:42.471Z,102027.24
2018-06-27T20:42:13.424Z,102032.03
2018-06-27T20:44:41.797Z,102030.00
2018-06-27T20:47:10.178Z,102035.20
2018-06-27T20:49:38.557Z,102035.77
2018-06-27T20:52:06.930Z,102043.48
2018-06-27T20:54:35.311Z,102039.70
2018-06-27T20:57:03.686Z,102036.71
2018-06-27T20:59:32.063Z,102040.63
2018-06-27T21:02:00.397Z,102043.37
2018-06-27T21:04:28.760Z,102038.29
2018-06-27T21:06:57.134Z,102042.00
2018-06-27T21:09:25.513Z,102041.21
2018-06-27T21:11:53.840Z,102039.94
2018-06-27T21:14:22.197Z,102040.81
2018-06-27T21:16:50.588Z,102036.65
2018-06-27T21:19:18.931Z,102037.22
2018-06-27T21:21:47.311Z,102050.78
2018-06-27T21:24:15.676Z,102045.52
2018-06-27T21:26:44.030Z,102048.47
2018-06-27T21:29:12.376Z,102052.07
2018-06-27T21:31:40.736Z,102054.69
2018-06-27T21:34:09.129Z,102056.92
2018-06-27T21:36:37.531Z,102059.95
2018-06-27T21:39:08.087Z,102058.20
2018-06-27T21:41:36.424Z,102064.95
2018-06-27T21:44:04.880Z,102063.00
2018-06-27T21:46:33.319Z,102067.47
2018-06-27T21:49:01.665Z,102074.09
2018-06-27T21:51:30.048Z,102070.57
2018-06-27T21:53:58.389Z,102073.52
2018-06-27T21:56:26.738Z,102072.91
2018-06-27T21:58:55.125Z,102073.02
2018-06-27T22:01:23.488Z,102071.64
2018-06-27T22:03:51.891Z,102065.70
2018-06-27T22:06:20.217Z,102069.40
2018-06-27T22:08:48.558Z,102066.48
2018-06-27T22:11:16.870Z,102071.69
2018-06-27T22:13:45.212Z,102069.45
2018-06-27T22:16:13.641Z,102067.72
2018-06-27T22:18:41.995Z,102068.26
2018-06-27T22:21:10.538Z,102064.59
2018-06-27T22:23:38.869Z,102068.16
2018-06-27T22:26:07.266Z,102067.78
2018-06-27T22:28:35.628Z,102070.79
2018-06-27T22:31:03.977Z,102065.03
2018-06-27T22:33:33.139Z,102058.09
2018-06-27T22:36:01.600Z,102061.59
2018-06-27T22:38:29.951Z,102062.47
2018-06-27T22:40:58.306Z,102062.36
2018-06-27T22:43:26.649Z,102062.26
2018-06-27T22:45:55.504Z,102056.43
2018-06-27T22:48:23.919Z,102060.62
2018-06-27T22:50:52.240Z,102055.91
2018-06-27T22:53:20.611Z,102055.98
2018-06-27T22:55:48.944Z,102056.50
2018-06-27T22:58:17.371Z,102060.20
2018-06-27T23:00:45.720Z,102059.20
2018-06-27T23:03:14.102Z,102051.41
2018-06-27T23:05:42.461Z,102048.48
2018-06-27T23:08:10.891Z,102051.97
2018-06-27T23:10:39.290Z,102054.91
2018-06-27T23:13:07.726Z,102055.28
2018-06-27T23:15:36.128Z,102051.59
2018-06-27T23:18:04.610Z,102048.77
2018-06-27T23:20:32.939Z,102051.97
2018-06-27T23:23:01.288Z,102054.09
2018-06-27T23:25:29.618Z,102042.62
2018-06-27T23:27:57.956Z,102044.75
2018-06-27T23:30:26.295Z,102047.85
2018-06-27T23:32:54.717Z,102044.16
2018-06-27T23:35:23.080Z,102040.63
2018-06-27T23:37:51.432Z,102045.86
2018-06-27T23:40:19.786Z,102043.06
2018-06-27T23:42:48.136Z,102044.84
2018-06-27T23:45:17.610Z,102033.16
2018-06-27T23:47:46.006Z,102034.13
2018-06-27T23:50:14.799Z,102038.38
2018-06-27T23:52:43.196Z,102036.81
2018-06-27T23:55:11.549Z,102036.81
2018-06-27T23:57:39.962Z,102030.18
